sensor_id;sensor_type;location;lat;lon;timestamp;temperature;humidity
814;DHT22;389;48.710;9.392;2024-03-06T00:02:36;7.70;99.90
814;DHT22;389;48.710;9.392;2024-03-06T00:05:31;7.70;99.90
814;DHT22;389;48.710;9.392;2024-03-06T00:11:35;7.70;99.90
814;DHT22;389;48.710;9.392;2024-03-06T00:36:54;7.60;99.90
814;DHT22;389;48.710;9.392;2024-03-06T00:43:52;7.50;99.90
814;DHT22;389;48.710;9.392;2024-03-06T00:53:21;7.20;99.90
814;DHT22;389;48.710;9.392;2024-03-06T00:59:39;7.30;99.90
814;DHT22;389;48.710;9.392;2024-03-06T01:17:13;7.00;99.90
814;DHT22;389;48.710;9.392;2024-03-06T01:40:52;7.00;99.90
814;DHT22;389;48.710;9.392;2024-03-06T03:21:19;6.90;99.90
814;DHT22;389;48.710;9.392;2024-03-06T03:23:45;6.90;99.90
814;DHT22;389;48.710;9.392;2024-03-06T03:26:11;6.90;99.90
814;DHT22;389;48.710;9.392;2024-03-06T03:28:40;7.00;99.90
814;DHT22;389;48.710;9.392;2024-03-06T03:31:09;7.00;99.90
814;DHT22;389;48.710;9.392;2024-03-06T03:33:44;7.00;99.90
814;DHT22;389;48.710;9.392;2024-03-06T03:36:13;7.00;99.90
814;DHT22;389;48.710;9.392;2024-03-06T03:38:39;7.00;99.90
814;DHT22;389;48.710;9.392;2024-03-06T03:41:11;7.00;99.90
814;DHT22;389;48.710;9.392;2024-03-06T03:43:39;7.00;99.90
814;DHT22;389;48.710;9.392;2024-03-06T03:46:05;7.00;99.90
814;DHT22;389;48.710;9.392;2024-03-06T03:48:32;7.00;99.90
814;DHT22;389;48.710;9.392;2024-03-06T03:51:02;7.00;99.90
814;DHT22;389;48.710;9.392;2024-03-06T03:53:29;7.00;99.90
814;DHT22;389;48.710;9.392;2024-03-06T03:55:55;7.30;99.90
814;DHT22;389;48.710;9.392;2024-03-06T03:58:20;7.00;99.90
814;DHT22;389;48.710;9.392;2024-03-06T04:00:46;7.00;99.90
814;DHT22;389;48.710;9.392;2024-03-06T04:03:12;7.10;99.90
814;DHT22;389;48.710;9.392;2024-03-06T04:05:38;7.10;99.90
814;DHT22;389;48.710;9.392;2024-03-06T04:08:04;7.20;99.90
814;DHT22;389;48.710;9.392;2024-03-06T04:10:31;7.20;99.90
814;DHT22;389;48.710;9.392;2024-03-06T04:12:58;7.10;99.90
814;DHT22;389;48.710;9.392;2024-03-06T04:15:25;7.10;99.90
814;DHT22;389;48.710;9.392;2024-03-06T04:17:51;7.20;99.90
814;DHT22;389;48.710;9.392;2024-03-06T04:20:17;7.20;99.90
814;DHT22;389;48.710;9.392;2024-03-06T04:22:43;7.10;99.90
814;DHT22;389;48.710;9.392;2024-03-06T04:25:09;7.10;99.90
814;DHT22;389;48.710;9.392;2024-03-06T04:27:35;7.20;99.90
814;DHT22;389;48.710;9.392;2024-03-06T04:30:00;7.20;99.90
814;DHT22;389;48.710;9.392;2024-03-06T04:32:27;7.30;99.90
814;DHT22;389;48.710;9.392;2024-03-06T04:34:53;7.20;99.90
814;DHT22;389;48.710;9.392;2024-03-06T04:37:21;7.20;99.90
814;DHT22;389;48.710;9.392;2024-03-06T04:39:47;7.30;99.90
814;DHT22;389;48.710;9.392;2024-03-06T04:42:13;7.00;99.90
814;DHT22;389;48.710;9.392;2024-03-06T04:44:39;7.30;99.90
814;DHT22;389;48.710;9.392;2024-03-06T04:47:07;7.20;99.90
814;DHT22;389;48.710;9.392;2024-03-06T04:49:33;7.30;99.90
814;DHT22;389;48.710;9.392;2024-03-06T04:52:00;7.30;99.90
814;DHT22;389;48.710;9.392;2024-03-06T04:54:27;7.30;99.90
814;DHT22;389;48.710;9.392;2024-03-06T04:56:53;7.30;99.90
814;DHT22;389;48.710;9.392;2024-03-06T04:59:21;7.40;99.90
814;DHT22;389;48.710;9.392;2024-03-06T05:01:48;7.30;99.90
814;DHT22;389;48.710;9.392;2024-03-06T05:04:17;7.30;99.90
814;DHT22;389;48.710;9.392;2024-03-06T05:06:43;7.30;99.90
814;DHT22;389;48.710;9.392;2024-03-06T05:09:10;7.30;99.90
814;DHT22;389;48.710;9.392;2024-03-06T05:11:37;7.30;99.90
814;DHT22;389;48.710;9.392;2024-03-06T05:14:07;7.30;99.90
814;DHT22;389;48.710;9.392;2024-03-06T05:16:34;7.30;99.90
814;DHT22;389;48.710;9.392;2024-03-06T05:19:08;7.30;99.90
814;DHT22;389;48.710;9.392;2024-03-06T05:21:37;7.30;99.90
814;DHT22;389;48.710;9.392;2024-03-06T05:24:05;7.10;99.90
814;DHT22;389;48.710;9.392;2024-03-06T05:26:36;7.40;99.90
814;DHT22;389;48.710;9.392;2024-03-06T05:29:06;7.40;99.90
814;DHT22;389;48.710;9.392;2024-03-06T05:31:34;7.40;99.90
814;DHT22;389;48.710;9.392;2024-03-06T05:34:15;7.40;99.90
814;DHT22;389;48.710;9.392;2024-03-06T05:37:01;7.40;99.90
814;DHT22;389;48.710;9.392;2024-03-06T05:39:31;7.40;99.90
814;DHT22;389;48.710;9.392;2024-03-06T05:42:22;7.40;99.90
814;DHT22;389;48.710;9.392;2024-03-06T05:44:48;7.40;99.90
814;DHT22;389;48.710;9.392;2024-03-06T05:47:19;7.40;99.90
814;DHT22;389;48.710;9.392;2024-03-06T05:49:46;7.40;99.90
814;DHT22;389;48.710;9.392;2024-03-06T05:52:16;7.50;99.90
814;DHT22;389;48.710;9.392;2024-03-06T05:54:43;7.50;99.90
814;DHT22;389;48.710;9.392;2024-03-06T05:57:19;7.50;99.90
814;DHT22;389;48.710;9.392;2024-03-06T05:59:49;7.40;99.90
814;DHT22;389;48.710;9.392;2024-03-06T06:02:37;7.50;99.90
814;DHT22;389;48.710;9.392;2024-03-06T06:05:36;7.50;99.90
814;DHT22;389;48.710;9.392;2024-03-06T06:08:14;7.50;99.90
814;DHT22;389;48.710;9.392;2024-03-06T06:10:46;7.60;99.90
814;DHT22;389;48.710;9.392;2024-03-06T06:13:12;7.60;99.90
814;DHT22;389;48.710;9.392;2024-03-06T06:15:38;7.60;99.90
814;DHT22;389;48.710;9.392;2024-03-06T06:18:04;7.60;99.90
814;DHT22;389;48.710;9.392;2024-03-06T06:20:33;7.60;99.90
814;DHT22;389;48.710;9.392;2024-03-06T06:22:59;7.60;99.90
814;DHT22;389;48.710;9.392;2024-03-06T06:25:24;7.80;99.90
814;DHT22;389;48.710;9.392;2024-03-06T06:27:50;7.70;99.90
814;DHT22;389;48.710;9.392;2024-03-06T06:30:16;7.70;99.90
814;DHT22;389;48.710;9.392;2024-03-06T06:32:42;7.70;99.90
814;DHT22;389;48.710;9.392;2024-03-06T06:35:09;7.80;99.90
814;DHT22;389;48.710;9.392;2024-03-06T06:37:35;7.80;99.90
814;DHT22;389;48.710;9.392;2024-03-06T06:40:02;7.80;99.90
814;DHT22;389;48.710;9.392;2024-03-06T06:42:32;7.60;99.90
814;DHT22;389;48.710;9.392;2024-03-06T06:44:59;7.80;99.90
814;DHT22;389;48.710;9.392;2024-03-06T06:47:24;7.80;99.90
814;DHT22;389;48.710;9.392;2024-03-06T06:49:50;8.00;99.90
814;DHT22;389;48.710;9.392;2024-03-06T06:52:17;8.00;99.90
814;DHT22;389;48.710;9.392;2024-03-06T06:54:42;8.00;99.90
814;DHT22;389;48.710;9.392;2024-03-06T06:57:08;7.90;99.90
814;DHT22;389;48.710;9.392;2024-03-06T06:59:34;7.90;99.90
814;DHT22;389;48.710;9.392;2024-03-06T07:02:00;8.10;99.90
814;DHT22;389;48.710;9.392;2024-03-06T07:04:26;8.00;99.90
814;DHT22;389;48.710;9.392;2024-03-06T07:06:51;8.00;99.90
814;DHT22;389;48.710;9.392;2024-03-06T07:09:19;8.00;99.90
814;DHT22;389;48.710;9.392;2024-03-06T07:11:44;8.20;99.90
814;DHT22;389;48.710;9.392;2024-03-06T07:14:12;8.20;99.90
814;DHT22;389;48.710;9.392;2024-03-06T07:16:45;8.10;99.90
814;DHT22;389;48.710;9.392;2024-03-06T07:19:11;8.10;99.90
814;DHT22;389;48.710;9.392;2024-03-06T07:21:36;8.20;99.90
814;DHT22;389;48.710;9.392;2024-03-06T07:24:03;8.20;99.90
814;DHT22;389;48.710;9.392;2024-03-06T07:26:33;8.10;99.90
814;DHT22;389;48.710;9.392;2024-03-06T07:28:58;8.20;99.90
814;DHT22;389;48.710;9.392;2024-03-06T07:31:25;8.20;99.90
814;DHT22;389;48.710;9.392;2024-03-06T07:33:51;8.20;99.90
814;DHT22;389;48.710;9.392;2024-03-06T07:36:16;8.20;99.90
814;DHT22;389;48.710;9.392;2024-03-06T07:38:42;8.30;99.90
814;DHT22;389;48.710;9.392;2024-03-06T07:41:08;8.30;99.90
814;DHT22;389;48.710;9.392;2024-03-06T07:43:33;8.40;99.90
814;DHT22;389;48.710;9.392;2024-03-06T07:45:59;8.30;99.90
814;DHT22;389;48.710;9.392;2024-03-06T07:48:25;8.30;99.90
814;DHT22;389;48.710;9.392;2024-03-06T07:50:50;8.40;99.90
814;DHT22;389;48.710;9.392;2024-03-06T07:53:16;8.30;99.90
814;DHT22;389;48.710;9.392;2024-03-06T07:55:42;8.30;99.90
814;DHT22;389;48.710;9.392;2024-03-06T07:58:08;8.30;99.90
814;DHT22;389;48.710;9.392;2024-03-06T08:00:35;8.30;99.90
814;DHT22;389;48.710;9.392;2024-03-06T08:03:00;8.30;99.90
814;DHT22;389;48.710;9.392;2024-03-06T08:05:27;8.30;99.90
814;DHT22;389;48.710;9.392;2024-03-06T08:07:53;8.30;99.90
814;DHT22;389;48.710;9.392;2024-03-06T08:10:19;8.30;99.90
814;DHT22;389;48.710;9.392;2024-03-06T08:12:45;8.30;99.90
814;DHT22;389;48.710;9.392;2024-03-06T08:15:14;8.20;99.90
814;DHT22;389;48.710;9.392;2024-03-06T08:17:41;8.30;99.90
814;DHT22;389;48.710;9.392;2024-03-06T08:20:08;8.40;99.90
814;DHT22;389;48.710;9.392;2024-03-06T08:22:38;8.40;99.90
814;DHT22;389;48.710;9.392;2024-03-06T08:25:06;8.50;99.90
814;DHT22;389;48.710;9.392;2024-03-06T08:27:33;8.40;99.90
814;DHT22;389;48.710;9.392;2024-03-06T08:29:59;8.40;99.90
814;DHT22;389;48.710;9.392;2024-03-06T08:32:25;8.40;99.90
814;DHT22;389;48.710;9.392;2024-03-06T08:34:50;8.50;99.90
814;DHT22;389;48.710;9.392;2024-03-06T08:37:17;8.40;99.90
814;DHT22;389;48.710;9.392;2024-03-06T08:39:43;8.40;99.90
814;DHT22;389;48.710;9.392;2024-03-06T08:42:08;8.50;99.90
814;DHT22;389;48.710;9.392;2024-03-06T08:44:34;8.40;99.90
814;DHT22;389;48.710;9.392;2024-03-06T08:47:00;8.40;99.90
814;DHT22;389;48.710;9.392;2024-03-06T08:49:25;8.40;99.90
814;DHT22;389;48.710;9.392;2024-03-06T08:51:51;8.30;99.90
814;DHT22;389;48.710;9.392;2024-03-06T08:54:16;8.50;99.90
814;DHT22;389;48.710;9.392;2024-03-06T08:56:45;8.30;99.90
814;DHT22;389;48.710;9.392;2024-03-06T08:59:11;8.40;99.90
814;DHT22;389;48.710;9.392;2024-03-06T09:01:36;8.30;99.90
814;DHT22;389;48.710;9.392;2024-03-06T09:04:02;8.30;99.90
814;DHT22;389;48.710;9.392;2024-03-06T09:06:27;8.40;99.90
814;DHT22;389;48.710;9.392;2024-03-06T09:08:53;8.40;99.90
814;DHT22;389;48.710;9.392;2024-03-06T09:11:18;8.30;99.90
814;DHT22;389;48.710;9.392;2024-03-06T09:13:44;8.30;99.90
814;DHT22;389;48.710;9.392;2024-03-06T09:16:09;8.30;99.90
814;DHT22;389;48.710;9.392;2024-03-06T09:18:35;8.40;99.90
814;DHT22;389;48.710;9.392;2024-03-06T09:21:01;8.20;99.90
814;DHT22;389;48.710;9.392;2024-03-06T09:23:27;8.20;99.90
814;DHT22;389;48.710;9.392;2024-03-06T09:25:55;8.20;99.90
814;DHT22;389;48.710;9.392;2024-03-06T09:28:20;8.20;99.90
814;DHT22;389;48.710;9.392;2024-03-06T09:30:46;8.30;99.90
814;DHT22;389;48.710;9.392;2024-03-06T09:33:12;8.20;99.90
814;DHT22;389;48.710;9.392;2024-03-06T09:35:38;8.20;99.90
814;DHT22;389;48.710;9.392;2024-03-06T09:38:03;8.30;99.90
814;DHT22;389;48.710;9.392;2024-03-06T09:40:29;8.20;99.90
814;DHT22;389;48.710;9.392;2024-03-06T09:42:56;8.20;99.90
814;DHT22;389;48.710;9.392;2024-03-06T09:45:23;8.20;99.90
814;DHT22;389;48.710;9.392;2024-03-06T09:47:49;8.30;99.90
814;DHT22;389;48.710;9.392;2024-03-06T09:50:18;8.30;99.90
814;DHT22;389;48.710;9.392;2024-03-06T09:52:51;8.20;99.90
814;DHT22;389;48.710;9.392;2024-03-06T09:55:17;8.20;99.90
814;DHT22;389;48.710;9.392;2024-03-06T09:57:43;8.30;99.90
814;DHT22;389;48.710;9.392;2024-03-06T10:00:09;8.20;99.90
814;DHT22;389;48.710;9.392;2024-03-06T10:02:57;8.20;99.90
814;DHT22;389;48.710;9.392;2024-03-06T10:05:23;8.20;99.90
814;DHT22;389;48.710;9.392;2024-03-06T10:07:53;8.20;99.90
814;DHT22;389;48.710;9.392;2024-03-06T10:10:19;8.20;99.90
814;DHT22;389;48.710;9.392;2024-03-06T10:12:46;8.20;99.90
814;DHT22;389;48.710;9.392;2024-03-06T10:15:13;8.20;99.90
814;DHT22;389;48.710;9.392;2024-03-06T10:17:39;8.20;99.90
814;DHT22;389;48.710;9.392;2024-03-06T10:20:25;8.20;99.90
814;DHT22;389;48.710;9.392;2024-03-06T10:22:53;8.30;99.90
814;DHT22;389;48.710;9.392;2024-03-06T10:25:23;8.40;99.90
814;DHT22;389;48.710;9.392;2024-03-06T10:28:05;8.50;99.90
814;DHT22;389;48.710;9.392;2024-03-06T10:30:42;8.40;99.90
814;DHT22;389;48.710;9.392;2024-03-06T10:33:09;8.50;99.90
814;DHT22;389;48.710;9.392;2024-03-06T10:35:35;8.50;99.90
814;DHT22;389;48.710;9.392;2024-03-06T10:38:05;8.60;99.90
814;DHT22;389;48.710;9.392;2024-03-06T10:40:32;8.70;99.90
814;DHT22;389;48.710;9.392;2024-03-06T10:43:03;8.80;99.90
814;DHT22;389;48.710;9.392;2024-03-06T10:48:13;9.00;99.90
814;DHT22;389;48.710;9.392;2024-03-06T10:50:40;9.10;99.90
814;DHT22;389;48.710;9.392;2024-03-06T10:53:11;9.10;99.90
814;DHT22;389;48.710;9.392;2024-03-06T10:55:37;9.20;99.90
814;DHT22;389;48.710;9.392;2024-03-06T10:58:07;9.30;99.90
814;DHT22;389;48.710;9.392;2024-03-06T11:00:45;9.30;99.90
814;DHT22;389;48.710;9.392;2024-03-06T11:03:14;9.30;99.90
814;DHT22;389;48.710;9.392;2024-03-06T11:05:41;9.50;99.90
814;DHT22;389;48.710;9.392;2024-03-06T11:08:10;9.40;99.90
814;DHT22;389;48.710;9.392;2024-03-06T11:10:38;9.50;99.90
814;DHT22;389;48.710;9.392;2024-03-06T11:15:45;9.60;99.90
814;DHT22;389;48.710;9.392;2024-03-06T11:23:32;9.60;99.90
814;DHT22;389;48.710;9.392;2024-03-06T11:26:04;9.70;99.90
814;DHT22;389;48.710;9.392;2024-03-06T11:28:35;9.70;99.90
814;DHT22;389;48.710;9.392;2024-03-06T11:31:04;9.70;99.90
814;DHT22;389;48.710;9.392;2024-03-06T11:33:40;9.70;99.90
814;DHT22;389;48.710;9.392;2024-03-06T11:36:22;9.70;99.90
814;DHT22;389;48.710;9.392;2024-03-06T11:38:57;9.70;99.90
814;DHT22;389;48.710;9.392;2024-03-06T11:41:48;9.70;99.90
814;DHT22;389;48.710;9.392;2024-03-06T11:44:23;9.70;99.90
814;DHT22;389;48.710;9.392;2024-03-06T11:49:32;9.80;99.90
814;DHT22;389;48.710;9.392;2024-03-06T11:52:06;9.70;99.90
814;DHT22;389;48.710;9.392;2024-03-06T11:54:33;9.70;99.90
814;DHT22;389;48.710;9.392;2024-03-06T11:57:01;9.70;99.90
814;DHT22;389;48.710;9.392;2024-03-06T11:59:35;9.60;99.90
814;DHT22;389;48.710;9.392;2024-03-06T12:02:06;9.60;99.90
814;DHT22;389;48.710;9.392;2024-03-06T12:04:34;9.60;99.90
814;DHT22;389;48.710;9.392;2024-03-06T12:07:09;9.60;99.90
814;DHT22;389;48.710;9.392;2024-03-06T12:09:37;9.50;99.90
814;DHT22;389;48.710;9.392;2024-03-06T12:12:09;9.50;99.90
814;DHT22;389;48.710;9.392;2024-03-06T12:14:36;9.60;99.90
814;DHT22;389;48.710;9.392;2024-03-06T12:17:02;9.60;99.90
814;DHT22;389;48.710;9.392;2024-03-06T12:19:35;9.60;99.90
814;DHT22;389;48.710;9.392;2024-03-06T12:22:04;9.60;99.90
814;DHT22;389;48.710;9.392;2024-03-06T12:24:31;9.50;99.90
814;DHT22;389;48.710;9.392;2024-03-06T12:27:13;9.50;99.90
814;DHT22;389;48.710;9.392;2024-03-06T12:30:01;9.50;99.90
814;DHT22;389;48.710;9.392;2024-03-06T12:32:36;9.40;99.90
814;DHT22;389;48.710;9.392;2024-03-06T12:35:36;9.50;99.90
814;DHT22;389;48.710;9.392;2024-03-06T12:38:31;9.40;99.90
814;DHT22;389;48.710;9.392;2024-03-06T12:41:02;9.50;99.90
814;DHT22;389;48.710;9.392;2024-03-06T12:44:10;9.50;99.90
814;DHT22;389;48.710;9.392;2024-03-06T12:47:21;9.30;99.90
814;DHT22;389;48.710;9.392;2024-03-06T12:50:54;9.50;99.90
814;DHT22;389;48.710;9.392;2024-03-06T13:00:10;9.40;99.90
814;DHT22;389;48.710;9.392;2024-03-06T13:06:50;9.30;99.90
814;DHT22;389;48.710;9.392;2024-03-06T13:20:08;9.40;99.90
814;DHT22;389;48.710;9.392;2024-03-06T13:22:47;9.30;99.90
814;DHT22;389;48.710;9.392;2024-03-06T13:32:48;9.30;99.90
814;DHT22;389;48.710;9.392;2024-03-06T13:46:28;9.30;99.90
814;DHT22;389;48.710;9.392;2024-03-06T13:55:41;9.00;99.90
814;DHT22;389;48.710;9.392;2024-03-06T13:58:07;9.10;99.90
814;DHT22;389;48.710;9.392;2024-03-06T14:00:33;9.10;99.90
814;DHT22;389;48.710;9.392;2024-03-06T14:03:00;9.10;99.90
814;DHT22;389;48.710;9.392;2024-03-06T14:05:29;9.10;99.90
814;DHT22;389;48.710;9.392;2024-03-06T14:07:55;9.20;99.90
814;DHT22;389;48.710;9.392;2024-03-06T14:10:22;9.10;99.90
814;DHT22;389;48.710;9.392;2024-03-06T14:12:49;9.20;99.90
814;DHT22;389;48.710;9.392;2024-03-06T14:15:18;9.20;99.90
814;DHT22;389;48.710;9.392;2024-03-06T14:17:44;9.00;99.90
814;DHT22;389;48.710;9.392;2024-03-06T14:20:11;9.20;99.90
814;DHT22;389;48.710;9.392;2024-03-06T14:22:43;9.30;99.90
814;DHT22;389;48.710;9.392;2024-03-06T14:25:09;9.30;99.90
814;DHT22;389;48.710;9.392;2024-03-06T14:27:36;9.30;99.90
814;DHT22;389;48.710;9.392;2024-03-06T14:30:03;9.30;99.90
814;DHT22;389;48.710;9.392;2024-03-06T14:32:29;9.20;99.90
814;DHT22;389;48.710;9.392;2024-03-06T14:34:54;9.20;99.90
814;DHT22;389;48.710;9.392;2024-03-06T14:37:20;9.30;99.90
814;DHT22;389;48.710;9.392;2024-03-06T14:39:46;9.30;99.90
814;DHT22;389;48.710;9.392;2024-03-06T14:42:12;9.30;99.90
814;DHT22;389;48.710;9.392;2024-03-06T14:44:37;9.10;99.90
814;DHT22;389;48.710;9.392;2024-03-06T14:47:03;9.40;99.90
814;DHT22;389;48.710;9.392;2024-03-06T14:49:31;9.30;99.90
814;DHT22;389;48.710;9.392;2024-03-06T14:51:56;9.30;99.90
814;DHT22;389;48.710;9.392;2024-03-06T14:54:22;9.40;99.90
814;DHT22;389;48.710;9.392;2024-03-06T14:56:52;9.30;99.90
814;DHT22;389;48.710;9.392;2024-03-06T14:59:18;9.30;99.90
814;DHT22;389;48.710;9.392;2024-03-06T15:01:44;9.40;99.90
814;DHT22;389;48.710;9.392;2024-03-06T15:04:10;9.60;99.90
814;DHT22;389;48.710;9.392;2024-03-06T15:06:38;9.40;99.90
814;DHT22;389;48.710;9.392;2024-03-06T15:09:04;9.50;99.90
814;DHT22;389;48.710;9.392;2024-03-06T15:11:30;9.50;99.90
814;DHT22;389;48.710;9.392;2024-03-06T15:13:58;9.40;99.90
814;DHT22;389;48.710;9.392;2024-03-06T15:16:24;9.30;99.90
814;DHT22;389;48.710;9.392;2024-03-06T15:18:50;9.30;99.90
814;DHT22;389;48.710;9.392;2024-03-06T15:21:18;9.30;99.90
814;DHT22;389;48.710;9.392;2024-03-06T15:23:44;9.30;99.90
814;DHT22;389;48.710;9.392;2024-03-06T15:26:09;9.30;99.90
814;DHT22;389;48.710;9.392;2024-03-06T15:28:36;9.30;99.90
814;DHT22;389;48.710;9.392;2024-03-06T15:31:02;9.30;99.90
814;DHT22;389;48.710;9.392;2024-03-06T15:33:49;9.10;99.90
814;DHT22;389;48.710;9.392;2024-03-06T15:36:52;9.40;99.90
814;DHT22;389;48.710;9.392;2024-03-06T15:47:15;9.10;99.90
814;DHT22;389;48.710;9.392;2024-03-06T15:49:56;9.10;99.90
814;DHT22;389;48.710;9.392;2024-03-06T16:13:21;9.10;99.90
814;DHT22;389;48.710;9.392;2024-03-06T16:16:39;9.10;99.90
814;DHT22;389;48.710;9.392;2024-03-06T16:19:51;9.00;99.90
814;DHT22;389;48.710;9.392;2024-03-06T16:23:00;8.90;99.90
814;DHT22;389;48.710;9.392;2024-03-06T16:25:29;9.00;99.90
814;DHT22;389;48.710;9.392;2024-03-06T16:28:12;9.00;99.90
814;DHT22;389;48.710;9.392;2024-03-06T16:31:07;9.00;99.90
814;DHT22;389;48.710;9.392;2024-03-06T16:33:33;9.00;99.90
814;DHT22;389;48.710;9.392;2024-03-06T16:36:01;9.00;99.90
814;DHT22;389;48.710;9.392;2024-03-06T16:38:27;8.90;99.90
814;DHT22;389;48.710;9.392;2024-03-06T16:40:53;8.90;99.90
814;DHT22;389;48.710;9.392;2024-03-06T16:43:28;9.00;99.90
814;DHT22;389;48.710;9.392;2024-03-06T16:45:53;8.90;99.90
814;DHT22;389;48.710;9.392;2024-03-06T16:48:19;8.90;99.90
814;DHT22;389;48.710;9.392;2024-03-06T16:50:45;8.80;99.90
814;DHT22;389;48.710;9.392;2024-03-06T16:53:11;8.90;99.90
814;DHT22;389;48.710;9.392;2024-03-06T16:55:37;8.80;99.90
814;DHT22;389;48.710;9.392;2024-03-06T16:58:02;8.80;99.90
814;DHT22;389;48.710;9.392;2024-03-06T17:00:28;8.70;99.90
814;DHT22;389;48.710;9.392;2024-03-06T17:02:54;8.80;99.90
814;DHT22;389;48.710;9.392;2024-03-06T17:05:21;8.70;99.90
814;DHT22;389;48.710;9.392;2024-03-06T17:07:48;8.70;99.90
814;DHT22;389;48.710;9.392;2024-03-06T17:10:27;8.70;99.90
814;DHT22;389;48.710;9.392;2024-03-06T17:12:56;8.80;99.90
814;DHT22;389;48.710;9.392;2024-03-06T17:15:22;8.80;99.90
814;DHT22;389;48.710;9.392;2024-03-06T17:17:52;8.70;99.90
814;DHT22;389;48.710;9.392;2024-03-06T17:20:17;8.70;99.90
814;DHT22;389;48.710;9.392;2024-03-06T17:22:46;8.70;99.90
814;DHT22;389;48.710;9.392;2024-03-06T17:25:12;8.70;99.90
814;DHT22;389;48.710;9.392;2024-03-06T17:27:37;8.70;99.90
814;DHT22;389;48.710;9.392;2024-03-06T17:30:04;8.60;99.90
814;DHT22;389;48.710;9.392;2024-03-06T17:32:30;8.60;99.90
814;DHT22;389;48.710;9.392;2024-03-06T17:34:55;8.60;99.90
814;DHT22;389;48.710;9.392;2024-03-06T17:37:21;8.60;99.90
814;DHT22;389;48.710;9.392;2024-03-06T17:39:47;8.60;99.90
814;DHT22;389;48.710;9.392;2024-03-06T17:42:12;8.60;99.90
814;DHT22;389;48.710;9.392;2024-03-06T17:44:38;8.60;99.90
814;DHT22;389;48.710;9.392;2024-03-06T17:47:04;8.60;99.90
814;DHT22;389;48.710;9.392;2024-03-06T17:49:29;8.60;99.90
814;DHT22;389;48.710;9.392;2024-03-06T17:51:55;8.60;99.90
814;DHT22;389;48.710;9.392;2024-03-06T17:54:21;8.60;99.90
814;DHT22;389;48.710;9.392;2024-03-06T17:56:48;8.60;99.90
814;DHT22;389;48.710;9.392;2024-03-06T17:59:14;8.60;99.90
814;DHT22;389;48.710;9.392;2024-03-06T18:01:39;8.60;99.90
814;DHT22;389;48.710;9.392;2024-03-06T18:04:06;8.60;99.90
814;DHT22;389;48.710;9.392;2024-03-06T18:06:32;8.60;99.90
814;DHT22;389;48.710;9.392;2024-03-06T18:08:58;8.60;99.90
814;DHT22;389;48.710;9.392;2024-03-06T18:11:24;8.60;99.90
814;DHT22;389;48.710;9.392;2024-03-06T18:13:50;8.60;99.90
814;DHT22;389;48.710;9.392;2024-03-06T18:16:15;8.60;99.90
814;DHT22;389;48.710;9.392;2024-03-06T18:18:41;8.60;99.90
814;DHT22;389;48.710;9.392;2024-03-06T18:21:07;8.60;99.90
814;DHT22;389;48.710;9.392;2024-03-06T18:23:34;8.60;99.90
814;DHT22;389;48.710;9.392;2024-03-06T18:26:01;8.60;99.90
814;DHT22;389;48.710;9.392;2024-03-06T18:28:27;8.60;99.90
814;DHT22;389;48.710;9.392;2024-03-06T18:30:53;8.60;99.90
814;DHT22;389;48.710;9.392;2024-03-06T18:33:18;8.70;99.90
814;DHT22;389;48.710;9.392;2024-03-06T18:35:45;8.70;99.90
814;DHT22;389;48.710;9.392;2024-03-06T18:38:11;8.70;99.90
814;DHT22;389;48.710;9.392;2024-03-06T18:40:37;8.70;99.90
814;DHT22;389;48.710;9.392;2024-03-06T18:43:03;8.70;99.90
814;DHT22;389;48.710;9.392;2024-03-06T18:45:29;8.70;99.90
814;DHT22;389;48.710;9.392;2024-03-06T18:47:55;8.70;99.90
814;DHT22;389;48.710;9.392;2024-03-06T18:50:23;8.60;99.90
814;DHT22;389;48.710;9.392;2024-03-06T18:52:49;8.60;99.90
814;DHT22;389;48.710;9.392;2024-03-06T18:55:15;8.60;99.90
814;DHT22;389;48.710;9.392;2024-03-06T18:57:40;8.60;99.90
814;DHT22;389;48.710;9.392;2024-03-06T19:00:06;8.60;99.90
814;DHT22;389;48.710;9.392;2024-03-06T19:02:32;8.60;99.90
814;DHT22;389;48.710;9.392;2024-03-06T19:04:58;8.70;99.90
814;DHT22;389;48.710;9.392;2024-03-06T19:07:23;8.60;99.90
814;DHT22;389;48.710;9.392;2024-03-06T19:09:52;8.60;99.90
814;DHT22;389;48.710;9.392;2024-03-06T19:12:18;8.60;99.90
814;DHT22;389;48.710;9.392;2024-03-06T19:14:44;8.60;99.90
814;DHT22;389;48.710;9.392;2024-03-06T19:17:10;8.70;99.90
814;DHT22;389;48.710;9.392;2024-03-06T19:19:35;8.60;99.90
814;DHT22;389;48.710;9.392;2024-03-06T19:22:01;8.60;99.90
814;DHT22;389;48.710;9.392;2024-03-06T19:24:27;8.60;99.90
814;DHT22;389;48.710;9.392;2024-03-06T19:26:53;8.60;99.90
814;DHT22;389;48.710;9.392;2024-03-06T19:29:19;8.60;99.90
814;DHT22;389;48.710;9.392;2024-03-06T19:31:46;8.60;99.90
814;DHT22;389;48.710;9.392;2024-03-06T19:45:48;8.60;99.90
814;DHT22;389;48.710;9.392;2024-03-06T19:48:19;8.60;99.90
814;DHT22;389;48.710;9.392;2024-03-06T19:51:03;8.50;99.90
814;DHT22;389;48.710;9.392;2024-03-06T19:56:42;8.50;99.90
814;DHT22;389;48.710;9.392;2024-03-06T20:18:05;8.50;99.90
814;DHT22;389;48.710;9.392;2024-03-06T21:03:04;8.30;99.90
814;DHT22;389;48.710;9.392;2024-03-06T21:12:41;8.10;99.90
814;DHT22;389;48.710;9.392;2024-03-06T21:15:08;8.20;99.90
814;DHT22;389;48.710;9.392;2024-03-06T21:17:34;8.20;99.90
814;DHT22;389;48.710;9.392;2024-03-06T21:20:00;8.20;99.90
814;DHT22;389;48.710;9.392;2024-03-06T21:22:33;8.20;99.90
814;DHT22;389;48.710;9.392;2024-03-06T21:24:58;8.20;99.90
814;DHT22;389;48.710;9.392;2024-03-06T21:27:24;8.20;99.90
814;DHT22;389;48.710;9.392;2024-03-06T21:29:50;8.10;99.90
814;DHT22;389;48.710;9.392;2024-03-06T21:32:16;8.00;99.90
814;DHT22;389;48.710;9.392;2024-03-06T21:34:42;8.00;99.90
814;DHT22;389;48.710;9.392;2024-03-06T21:37:09;8.00;99.90
814;DHT22;389;48.710;9.392;2024-03-06T21:39:35;7.90;99.90
814;DHT22;389;48.710;9.392;2024-03-06T21:42:01;7.90;99.90
814;DHT22;389;48.710;9.392;2024-03-06T21:44:26;7.80;99.90
814;DHT22;389;48.710;9.392;2024-03-06T21:46:53;7.70;99.90
814;DHT22;389;48.710;9.392;2024-03-06T21:49:19;7.80;99.90
814;DHT22;389;48.710;9.392;2024-03-06T21:51:45;7.70;99.90
814;DHT22;389;48.710;9.392;2024-03-06T21:54:11;7.80;99.90
814;DHT22;389;48.710;9.392;2024-03-06T21:56:36;7.70;99.90
814;DHT22;389;48.710;9.392;2024-03-06T21:59:02;7.70;99.90
814;DHT22;389;48.710;9.392;2024-03-06T22:01:28;7.70;99.90
814;DHT22;389;48.710;9.392;2024-03-06T22:03:53;7.70;99.90
814;DHT22;389;48.710;9.392;2024-03-06T22:06:19;7.70;99.90
814;DHT22;389;48.710;9.392;2024-03-06T22:08:45;7.60;99.90
814;DHT22;389;48.710;9.392;2024-03-06T22:11:10;7.60;99.90
814;DHT22;389;48.710;9.392;2024-03-06T22:13:39;7.60;99.90
814;DHT22;389;48.710;9.392;2024-03-06T22:16:05;7.60;99.90
814;DHT22;389;48.710;9.392;2024-03-06T22:18:31;7.50;99.90
814;DHT22;389;48.710;9.392;2024-03-06T22:20:57;7.50;99.90
814;DHT22;389;48.710;9.392;2024-03-06T22:23:23;7.50;99.90
814;DHT22;389;48.710;9.392;2024-03-06T22:25:49;7.50;99.90
814;DHT22;389;48.710;9.392;2024-03-06T22:28:15;7.50;99.90
814;DHT22;389;48.710;9.392;2024-03-06T22:30:40;7.50;99.90
814;DHT22;389;48.710;9.392;2024-03-06T22:33:08;7.60;99.90
814;DHT22;389;48.710;9.392;2024-03-06T22:35:35;7.60;99.90
814;DHT22;389;48.710;9.392;2024-03-06T22:38:01;7.60;99.90
814;DHT22;389;48.710;9.392;2024-03-06T22:40:26;7.60;99.90
814;DHT22;389;48.710;9.392;2024-03-06T22:42:55;7.60;99.90
814;DHT22;389;48.710;9.392;2024-03-06T22:45:21;7.70;99.90
814;DHT22;389;48.710;9.392;2024-03-06T22:47:46;7.70;99.90
814;DHT22;389;48.710;9.392;2024-03-06T22:50:12;7.70;99.90
814;DHT22;389;48.710;9.392;2024-03-06T22:52:37;7.70;99.90